sensor_id;sensor_type;location;lat;lon;timestamp;P1;durP1;ratioP1;P2;durP2;ratioP2
3563;SDS011;1796;52.388;13.096;2022-12-17T00:02:22;57.07;;;26.37;;
3563;SDS011;1796;52.388;13.096;2022-12-17T00:05:13;65.97;;;27.17;;
3563;SDS011;1796;52.388;13.096;2022-12-17T00:07:57;66.10;;;26.93;;
3563;SDS011;1796;52.388;13.096;2022-12-17T00:10:42;56.53;;;24.80;;
3563;SDS011;1796;52.388;13.096;2022-12-17T00:13:28;75.33;;;27.77;;
3563;SDS011;1796;52.388;13.096;2022-12-17T00:16:13;66.40;;;25.60;;
3563;SDS011;1796;52.388;13.096;2022-12-17T00:18:58;59.40;;;22.97;;
3563;SDS011;1796;52.388;13.096;2022-12-17T00:21:43;54.80;;;21.77;;
3563;SDS011;1796;52.388;13.096;2022-12-17T00:24:27;64.20;;;23.67;;
3563;SDS011;1796;52.388;13.096;2022-12-17T00:27:17;53.77;;;22.30;;
3563;SDS011;1796;52.388;13.096;2022-12-17T00:30:03;51.30;;;21.83;;
3563;SDS011;1796;52.388;13.096;2022-12-17T00:32:48;52.20;;;21.90;;
3563;SDS011;1796;52.388;13.096;2022-12-17T00:35:33;50.17;;;19.67;;
3563;SDS011;1796;52.388;13.096;2022-12-17T00:38:18;49.20;;;21.00;;
3563;SDS011;1796;52.388;13.096;2022-12-17T00:41:03;50.90;;;18.70;;
3563;SDS011;1796;52.388;13.096;2022-12-17T00:43:47;45.97;;;18.93;;
3563;SDS011;1796;52.388;13.096;2022-12-17T00:46:33;35.93;;;16.80;;
3563;SDS011;1796;52.388;13.096;2022-12-17T00:49:17;41.03;;;19.10;;
3563;SDS011;1796;52.388;13.096;2022-12-17T00:52:02;41.90;;;16.60;;
3563;SDS011;1796;52.388;13.096;2022-12-17T00:54:47;37.87;;;17.07;;
3563;SDS011;1796;52.388;13.096;2022-12-17T00:57:31;35.07;;;14.40;;
3563;SDS011;1796;52.388;13.096;2022-12-17T01:00:16;39.37;;;15.13;;
3563;SDS011;1796;52.388;13.096;2022-12-17T01:03:06;40.03;;;14.40;;
3563;SDS011;1796;52.388;13.096;2022-12-17T01:05:54;33.40;;;14.00;;
3563;SDS011;1796;52.388;13.096;2022-12-17T01:08:35;33.17;;;14.13;;
3563;SDS011;1796;52.388;13.096;2022-12-17T01:11:15;35.43;;;14.27;;
3563;SDS011;1796;52.388;13.096;2022-12-17T01:14:00;36.53;;;15.17;;
3563;SDS011;1796;52.388;13.096;2022-12-17T01:16:44;38.90;;;16.47;;
3563;SDS011;1796;52.388;13.096;2022-12-17T01:19:30;43.27;;;16.63;;
3563;SDS011;1796;52.388;13.096;2022-12-17T01:22:15;36.90;;;17.57;;
3563;SDS011;1796;52.388;13.096;2022-12-17T01:24:59;37.53;;;16.70;;
3563;SDS011;1796;52.388;13.096;2022-12-17T01:27:46;47.37;;;17.13;;
3563;SDS011;1796;52.388;13.096;2022-12-17T01:30:31;45.97;;;17.50;;
3563;SDS011;1796;52.388;13.096;2022-12-17T01:33:18;42.47;;;18.27;;
3563;SDS011;1796;52.388;13.096;2022-12-17T01:36:04;44.43;;;17.20;;
3563;SDS011;1796;52.388;13.096;2022-12-17T01:38:49;34.50;;;15.10;;
3563;SDS011;1796;52.388;13.096;2022-12-17T01:41:33;51.83;;;18.23;;
3563;SDS011;1796;52.388;13.096;2022-12-17T01:47:31;36.40;;;15.70;;
3563;SDS011;1796;52.388;13.096;2022-12-17T01:50:20;37.17;;;16.90;;
3563;SDS011;1796;52.388;13.096;2022-12-17T01:53:07;47.83;;;16.70;;
3563;SDS011;1796;52.388;13.096;2022-12-17T01:55:53;40.60;;;15.40;;
3563;SDS011;1796;52.388;13.096;2022-12-17T01:58:38;42.07;;;15.53;;
3563;SDS011;1796;52.388;13.096;2022-12-17T02:01:23;35.60;;;14.30;;
3563;SDS011;1796;52.388;13.096;2022-12-17T02:04:08;31.97;;;14.80;;
3563;SDS011;1796;52.388;13.096;2022-12-17T02:06:56;40.23;;;15.87;;
3563;SDS011;1796;52.388;13.096;2022-12-17T02:09:54;32.00;;;13.90;;
3563;SDS011;1796;52.388;13.096;2022-12-17T02:12:46;32.60;;;14.00;;
3563;SDS011;1796;52.388;13.096;2022-12-17T02:15:34;38.60;;;14.07;;
3563;SDS011;1796;52.388;13.096;2022-12-17T02:18:24;33.20;;;12.30;;
3563;SDS011;1796;52.388;13.096;2022-12-17T02:21:12;29.70;;;14.30;;
3563;SDS011;1796;52.388;13.096;2022-12-17T02:23:58;31.20;;;13.03;;
3563;SDS011;1796;52.388;13.096;2022-12-17T02:26:52;31.70;;;12.97;;
3563;SDS011;1796;52.388;13.096;2022-12-17T02:29:39;42.13;;;11.63;;
3563;SDS011;1796;52.388;13.096;2022-12-17T02:32:26;29.87;;;10.50;;
3563;SDS011;1796;52.388;13.096;2022-12-17T02:35:13;31.20;;;10.17;;
3563;SDS011;1796;52.388;13.096;2022-12-17T02:37:58;33.90;;;10.40;;
3563;SDS011;1796;52.388;13.096;2022-12-17T02:40:57;23.27;;;9.73;;
3563;SDS011;1796;52.388;13.096;2022-12-17T02:43:42;26.70;;;11.50;;
3563;SDS011;1796;52.388;13.096;2022-12-17T02:46:27;37.73;;;10.97;;
3563;SDS011;1796;52.388;13.096;2022-12-17T02:49:12;25.40;;;10.10;;
3563;SDS011;1796;52.388;13.096;2022-12-17T02:51:56;30.00;;;10.53;;
3563;SDS011;1796;52.388;13.096;2022-12-17T02:54:41;20.63;;;9.60;;
3563;SDS011;1796;52.388;13.096;2022-12-17T02:57:21;24.90;;;11.93;;
3563;SDS011;1796;52.388;13.096;2022-12-17T03:00:08;19.70;;;9.37;;
3563;SDS011;1796;52.388;13.096;2022-12-17T03:02:53;30.10;;;11.13;;
3563;SDS011;1796;52.388;13.096;2022-12-17T03:05:37;32.47;;;11.17;;
3563;SDS011;1796;52.388;13.096;2022-12-17T03:08:23;23.93;;;10.10;;
3563;SDS011;1796;52.388;13.096;2022-12-17T03:11:07;27.97;;;9.60;;
3563;SDS011;1796;52.388;13.096;2022-12-17T03:13:51;27.87;;;9.53;;
3563;SDS011;1796;52.388;13.096;2022-12-17T03:16:37;22.83;;;9.83;;
3563;SDS011;1796;52.388;13.096;2022-12-17T03:19:22;30.10;;;8.87;;
3563;SDS011;1796;52.388;13.096;2022-12-17T03:22:06;43.57;;;8.70;;
3563;SDS011;1796;52.388;13.096;2022-12-17T03:24:50;32.13;;;9.10;;
3563;SDS011;1796;52.388;13.096;2022-12-17T03:27:34;38.10;;;9.47;;
3563;SDS011;1796;52.388;13.096;2022-12-17T03:30:19;64.73;;;8.50;;
3563;SDS011;1796;52.388;13.096;2022-12-17T03:33:12;38.50;;;9.60;;
3563;SDS011;1796;52.388;13.096;2022-12-17T03:35:56;32.07;;;10.40;;
3563;SDS011;1796;52.388;13.096;2022-12-17T03:38:40;23.77;;;9.63;;
3563;SDS011;1796;52.388;13.096;2022-12-17T03:41:25;21.63;;;10.10;;
3563;SDS011;1796;52.388;13.096;2022-12-17T03:44:09;27.03;;;9.50;;
3563;SDS011;1796;52.388;13.096;2022-12-17T03:46:53;36.20;;;10.27;;
3563;SDS011;1796;52.388;13.096;2022-12-17T03:49:39;43.37;;;8.83;;
3563;SDS011;1796;52.388;13.096;2022-12-17T03:52:23;26.17;;;9.60;;
3563;SDS011;1796;52.388;13.096;2022-12-17T03:55:07;22.90;;;10.37;;
3563;SDS011;1796;52.388;13.096;2022-12-17T03:57:52;25.40;;;9.80;;
3563;SDS011;1796;52.388;13.096;2022-12-17T04:00:36;28.20;;;8.80;;
3563;SDS011;1796;52.388;13.096;2022-12-17T04:03:29;23.43;;;9.17;;
3563;SDS011;1796;52.388;13.096;2022-12-17T04:06:15;29.97;;;8.60;;
3563;SDS011;1796;52.388;13.096;2022-12-17T04:08:59;28.27;;;8.13;;
3563;SDS011;1796;52.388;13.096;2022-12-17T04:11:44;17.07;;;8.57;;
3563;SDS011;1796;52.388;13.096;2022-12-17T04:14:28;20.60;;;8.23;;
3563;SDS011;1796;52.388;13.096;2022-12-17T04:17:13;27.93;;;8.37;;
3563;SDS011;1796;52.388;13.096;2022-12-17T04:19:57;17.70;;;8.33;;
3563;SDS011;1796;52.388;13.096;2022-12-17T04:22:43;31.00;;;9.00;;
3563;SDS011;1796;52.388;13.096;2022-12-17T04:25:27;28.73;;;8.20;;
3563;SDS011;1796;52.388;13.096;2022-12-17T04:28:11;23.97;;;7.57;;
3563;SDS011;1796;52.388;13.096;2022-12-17T04:30:55;23.43;;;9.10;;
3563;SDS011;1796;52.388;13.096;2022-12-17T04:33:40;29.90;;;10.07;;
3563;SDS011;1796;52.388;13.096;2022-12-17T04:36:24;20.17;;;8.57;;
3563;SDS011;1796;52.388;13.096;2022-12-17T04:39:10;25.77;;;8.17;;
3563;SDS011;1796;52.388;13.096;2022-12-17T04:41:54;32.80;;;8.90;;
3563;SDS011;1796;52.388;13.096;2022-12-17T04:44:38;26.70;;;9.57;;
3563;SDS011;1796;52.388;13.096;2022-12-17T04:47:23;21.83;;;8.70;;
3563;SDS011;1796;52.388;13.096;2022-12-17T04:50:07;19.40;;;8.47;;
3563;SDS011;1796;52.388;13.096;2022-12-17T04:52:58;29.10;;;9.77;;
3563;SDS011;1796;52.388;13.096;2022-12-17T04:55:44;32.43;;;9.00;;
3563;SDS011;1796;52.388;13.096;2022-12-17T04:58:45;30.47;;;9.90;;
3563;SDS011;1796;52.388;13.096;2022-12-17T05:01:30;27.60;;;9.67;;
3563;SDS011;1796;52.388;13.096;2022-12-17T05:04:14;27.10;;;9.17;;
3563;SDS011;1796;52.388;13.096;2022-12-17T05:06:58;26.13;;;9.03;;
3563;SDS011;1796;52.388;13.096;2022-12-17T05:09:42;25.07;;;8.90;;
3563;SDS011;1796;52.388;13.096;2022-12-17T05:12:28;29.87;;;8.47;;
3563;SDS011;1796;52.388;13.096;2022-12-17T05:15:13;30.77;;;9.90;;
3563;SDS011;1796;52.388;13.096;2022-12-17T05:18:02;30.37;;;9.60;;
3563;SDS011;1796;52.388;13.096;2022-12-17T05:20:48;23.37;;;9.60;;
3563;SDS011;1796;52.388;13.096;2022-12-17T05:23:32;22.77;;;10.20;;
3563;SDS011;1796;52.388;13.096;2022-12-17T05:26:17;34.27;;;10.13;;
3563;SDS011;1796;52.388;13.096;2022-12-17T05:29:05;34.33;;;12.00;;
3563;SDS011;1796;52.388;13.096;2022-12-17T05:31:50;25.10;;;9.30;;
3563;SDS011;1796;52.388;13.096;2022-12-17T05:34:35;34.23;;;10.07;;
3563;SDS011;1796;52.388;13.096;2022-12-17T05:37:19;20.37;;;9.47;;
3563;SDS011;1796;52.388;13.096;2022-12-17T05:40:04;26.83;;;9.73;;
3563;SDS011;1796;52.388;13.096;2022-12-17T05:42:53;19.93;;;9.37;;
3563;SDS011;1796;52.388;13.096;2022-12-17T05:45:40;30.00;;;9.70;;
3563;SDS011;1796;52.388;13.096;2022-12-17T05:48:25;25.80;;;9.37;;
3563;SDS011;1796;52.388;13.096;2022-12-17T05:51:10;32.13;;;9.33;;
3563;SDS011;1796;52.388;13.096;2022-12-17T05:54:03;20.30;;;8.53;;
3563;SDS011;1796;52.388;13.096;2022-12-17T05:56:47;23.43;;;8.97;;
3563;SDS011;1796;52.388;13.096;2022-12-17T05:59:32;27.00;;;10.00;;
3563;SDS011;1796;52.388;13.096;2022-12-17T06:02:18;27.50;;;9.97;;
3563;SDS011;1796;52.388;13.096;2022-12-17T06:05:03;22.10;;;8.83;;
3563;SDS011;1796;52.388;13.096;2022-12-17T06:07:47;19.40;;;8.83;;
3563;SDS011;1796;52.388;13.096;2022-12-17T06:10:32;23.87;;;9.10;;
3563;SDS011;1796;52.388;13.096;2022-12-17T06:13:16;22.73;;;9.83;;
3563;SDS011;1796;52.388;13.096;2022-12-17T06:16:00;19.10;;;8.70;;
3563;SDS011;1796;52.388;13.096;2022-12-17T06:18:45;21.23;;;9.37;;
3563;SDS011;1796;52.388;13.096;2022-12-17T06:21:30;36.67;;;10.97;;
3563;SDS011;1796;52.388;13.096;2022-12-17T06:24:15;16.57;;;8.47;;
3563;SDS011;1796;52.388;13.096;2022-12-17T06:26:59;27.73;;;10.40;;
3563;SDS011;1796;52.388;13.096;2022-12-17T06:29:43;29.40;;;11.43;;
3563;SDS011;1796;52.388;13.096;2022-12-17T06:32:27;27.27;;;11.03;;
3563;SDS011;1796;52.388;13.096;2022-12-17T06:35:13;28.57;;;10.57;;
3563;SDS011;1796;52.388;13.096;2022-12-17T06:37:57;28.57;;;12.20;;
3563;SDS011;1796;52.388;13.096;2022-12-17T06:40:42;27.40;;;11.63;;
3563;SDS011;1796;52.388;13.096;2022-12-17T06:43:27;21.40;;;10.30;;
3563;SDS011;1796;52.388;13.096;2022-12-17T06:46:11;24.73;;;10.30;;
3563;SDS011;1796;52.388;13.096;2022-12-17T06:48:55;36.07;;;11.00;;
3563;SDS011;1796;52.388;13.096;2022-12-17T06:51:41;29.87;;;12.67;;
3563;SDS011;1796;52.388;13.096;2022-12-17T06:54:25;30.10;;;10.70;;
3563;SDS011;1796;52.388;13.096;2022-12-17T06:57:09;23.90;;;11.87;;
3563;SDS011;1796;52.388;13.096;2022-12-17T06:59:53;21.50;;;10.30;;
3563;SDS011;1796;52.388;13.096;2022-12-17T07:02:38;24.40;;;11.67;;
3563;SDS011;1796;52.388;13.096;2022-12-17T07:05:22;29.63;;;10.90;;
3563;SDS011;1796;52.388;13.096;2022-12-17T07:08:08;23.73;;;10.87;;
3563;SDS011;1796;52.388;13.096;2022-12-17T07:10:52;30.00;;;11.47;;
3563;SDS011;1796;52.388;13.096;2022-12-17T07:13:36;24.43;;;11.50;;
3563;SDS011;1796;52.388;13.096;2022-12-17T07:16:21;27.10;;;12.60;;
3563;SDS011;1796;52.388;13.096;2022-12-17T07:19:05;32.03;;;13.23;;
3563;SDS011;1796;52.388;13.096;2022-12-17T07:21:49;27.40;;;12.77;;
3563;SDS011;1796;52.388;13.096;2022-12-17T07:24:35;28.03;;;13.10;;
3563;SDS011;1796;52.388;13.096;2022-12-17T07:27:19;25.40;;;12.93;;
3563;SDS011;1796;52.388;13.096;2022-12-17T07:30:04;28.07;;;12.80;;
3563;SDS011;1796;52.388;13.096;2022-12-17T07:32:56;31.77;;;13.93;;
3563;SDS011;1796;52.388;13.096;2022-12-17T07:35:41;33.33;;;12.37;;
3563;SDS011;1796;52.388;13.096;2022-12-17T07:38:28;28.50;;;13.47;;
3563;SDS011;1796;52.388;13.096;2022-12-17T07:41:14;39.80;;;14.57;;
3563;SDS011;1796;52.388;13.096;2022-12-17T07:43:59;27.63;;;14.60;;
3563;SDS011;1796;52.388;13.096;2022-12-17T07:46:43;31.07;;;13.63;;
3563;SDS011;1796;52.388;13.096;2022-12-17T07:49:27;30.70;;;14.53;;
3563;SDS011;1796;52.388;13.096;2022-12-17T07:52:11;30.00;;;13.73;;
3563;SDS011;1796;52.388;13.096;2022-12-17T07:54:56;28.47;;;13.70;;
3563;SDS011;1796;52.388;13.096;2022-12-17T07:57:41;32.53;;;13.87;;
3563;SDS011;1796;52.388;13.096;2022-12-17T08:00:25;30.83;;;14.47;;
3563;SDS011;1796;52.388;13.096;2022-12-17T08:03:18;27.47;;;13.93;;
3563;SDS011;1796;52.388;13.096;2022-12-17T08:06:03;30.33;;;14.90;;
3563;SDS011;1796;52.388;13.096;2022-12-17T08:08:48;35.13;;;14.90;;
3563;SDS011;1796;52.388;13.096;2022-12-17T08:11:32;31.53;;;14.30;;
3563;SDS011;1796;52.388;13.096;2022-12-17T08:14:17;30.43;;;14.33;;
3563;SDS011;1796;52.388;13.096;2022-12-17T08:17:02;28.03;;;14.90;;
3563;SDS011;1796;52.388;13.096;2022-12-17T08:19:46;29.90;;;14.57;;
3563;SDS011;1796;52.388;13.096;2022-12-17T08:22:30;27.60;;;14.63;;
3563;SDS011;1796;52.388;13.096;2022-12-17T08:25:14;32.13;;;14.90;;
3563;SDS011;1796;52.388;13.096;2022-12-17T08:27:59;27.07;;;14.37;;
3563;SDS011;1796;52.388;13.096;2022-12-17T08:30:47;27.20;;;13.20;;
3563;SDS011;1796;52.388;13.096;2022-12-17T08:33:32;29.40;;;14.00;;
3563;SDS011;1796;52.388;13.096;2022-12-17T08:36:17;28.27;;;14.10;;
3563;SDS011;1796;52.388;13.096;2022-12-17T08:39:02;32.00;;;15.80;;
3563;SDS011;1796;52.388;13.096;2022-12-17T08:41:46;34.77;;;16.30;;
3563;SDS011;1796;52.388;13.096;2022-12-17T08:44:30;34.67;;;15.30;;
3563;SDS011;1796;52.388;13.096;2022-12-17T08:47:16;32.73;;;15.90;;
3563;SDS011;1796;52.388;13.096;2022-12-17T08:50:01;30.63;;;15.13;;
3563;SDS011;1796;52.388;13.096;2022-12-17T08:52:45;36.00;;;15.47;;
3563;SDS011;1796;52.388;13.096;2022-12-17T08:55:29;41.30;;;17.20;;
3563;SDS011;1796;52.388;13.096;2022-12-17T08:58:13;33.67;;;17.00;;
3563;SDS011;1796;52.388;13.096;2022-12-17T09:00:57;43.63;;;18.50;;
3563;SDS011;1796;52.388;13.096;2022-12-17T09:03:45;39.33;;;17.57;;
3563;SDS011;1796;52.388;13.096;2022-12-17T09:06:30;39.00;;;15.93;;
3563;SDS011;1796;52.388;13.096;2022-12-17T09:09:14;35.43;;;16.57;;
3563;SDS011;1796;52.388;13.096;2022-12-17T09:11:58;34.60;;;16.80;;
3563;SDS011;1796;52.388;13.096;2022-12-17T09:14:43;31.30;;;16.00;;
3563;SDS011;1796;52.388;13.096;2022-12-17T09:17:27;41.30;;;17.30;;
3563;SDS011;1796;52.388;13.096;2022-12-17T09:20:13;32.17;;;17.13;;
3563;SDS011;1796;52.388;13.096;2022-12-17T09:22:57;43.80;;;19.10;;
3563;SDS011;1796;52.388;13.096;2022-12-17T09:25:41;30.77;;;16.50;;
3563;SDS011;1796;52.388;13.096;2022-12-17T09:28:26;33.93;;;15.97;;
3563;SDS011;1796;52.388;13.096;2022-12-17T09:31:10;32.93;;;15.70;;
3563;SDS011;1796;52.388;13.096;2022-12-17T09:33:54;36.30;;;16.57;;
3563;SDS011;1796;52.388;13.096;2022-12-17T09:36:40;38.83;;;16.60;;
3563;SDS011;1796;52.388;13.096;2022-12-17T09:39:24;31.53;;;15.63;;
3563;SDS011;1796;52.388;13.096;2022-12-17T09:42:11;34.47;;;16.60;;
3563;SDS011;1796;52.388;13.096;2022-12-17T09:45:03;36.43;;;15.50;;
3563;SDS011;1796;52.388;13.096;2022-12-17T09:47:56;34.73;;;14.60;;
3563;SDS011;1796;52.388;13.096;2022-12-17T09:50:49;33.93;;;16.27;;
3563;SDS011;1796;52.388;13.096;2022-12-17T09:53:36;39.77;;;17.33;;
3563;SDS011;1796;52.388;13.096;2022-12-17T09:56:29;35.73;;;15.40;;
3563;SDS011;1796;52.388;13.096;2022-12-17T09:59:16;42.43;;;16.97;;
3563;SDS011;1796;52.388;13.096;2022-12-17T10:02:07;43.00;;;18.47;;
3563;SDS011;1796;52.388;13.096;2022-12-17T10:04:55;34.13;;;15.57;;
3563;SDS011;1796;52.388;13.096;2022-12-17T10:07:41;46.77;;;18.97;;
3563;SDS011;1796;52.388;13.096;2022-12-17T10:10:30;43.73;;;18.97;;
3563;SDS011;1796;52.388;13.096;2022-12-17T10:13:16;33.00;;;16.20;;
3563;SDS011;1796;52.388;13.096;2022-12-17T10:16:07;33.43;;;17.30;;
3563;SDS011;1796;52.388;13.096;2022-12-17T10:19:02;40.33;;;18.80;;
3563;SDS011;1796;52.388;13.096;2022-12-17T10:21:47;39.17;;;17.70;;
3563;SDS011;1796;52.388;13.096;2022-12-17T10:24:31;48.70;;;18.93;;
3563;SDS011;1796;52.388;13.096;2022-12-17T10:27:29;38.07;;;17.80;;
3563;SDS011;1796;52.388;13.096;2022-12-17T10:30:14;39.93;;;18.60;;
3563;SDS011;1796;52.388;13.096;2022-12-17T10:33:03;42.20;;;16.83;;
3563;SDS011;1796;52.388;13.096;2022-12-17T10:35:48;40.50;;;17.37;;
3563;SDS011;1796;52.388;13.096;2022-12-17T10:38:32;32.07;;;16.60;;
3563;SDS011;1796;52.388;13.096;2022-12-17T10:41:20;33.40;;;13.53;;
3563;SDS011;1796;52.388;13.096;2022-12-17T10:44:21;41.20;;;16.80;;
3563;SDS011;1796;52.388;13.096;2022-12-17T10:47:09;68.30;;;25.70;;
3563;SDS011;1796;52.388;13.096;2022-12-17T10:49:58;95.23;;;37.13;;
3563;SDS011;1796;52.388;13.096;2022-12-17T10:52:43;55.10;;;21.80;;
3563;SDS011;1796;52.388;13.096;2022-12-17T10:55:30;111.30;;;42.30;;
3563;SDS011;1796;52.388;13.096;2022-12-17T10:58:19;45.53;;;19.90;;
3563;SDS011;1796;52.388;13.096;2022-12-17T11:01:09;44.77;;;18.97;;
3563;SDS011;1796;52.388;13.096;2022-12-17T11:03:55;36.67;;;16.70;;
3563;SDS011;1796;52.388;13.096;2022-12-17T11:06:41;33.27;;;16.83;;
3563;SDS011;1796;52.388;13.096;2022-12-17T11:09:34;131.50;;;43.43;;
3563;SDS011;1796;52.388;13.096;2022-12-17T11:12:25;32.23;;;16.70;;
3563;SDS011;1796;52.388;13.096;2022-12-17T11:15:18;189.13;;;61.47;;
3563;SDS011;1796;52.388;13.096;2022-12-17T11:18:08;33.93;;;15.23;;
3563;SDS011;1796;52.388;13.096;2022-12-17T11:21:01;30.83;;;13.43;;
3563;SDS011;1796;52.388;13.096;2022-12-17T11:23:50;32.30;;;14.30;;
3563;SDS011;1796;52.388;13.096;2022-12-17T11:26:39;84.60;;;27.90;;
3563;SDS011;1796;52.388;13.096;2022-12-17T11:29:27;62.17;;;27.23;;
3563;SDS011;1796;52.388;13.096;2022-12-17T11:32:32;76.60;;;30.80;;
3563;SDS011;1796;52.388;13.096;2022-12-17T11:35:42;37.67;;;14.67;;
3563;SDS011;1796;52.388;13.096;2022-12-17T11:38:45;47.70;;;19.57;;
3563;SDS011;1796;52.388;13.096;2022-12-17T11:41:38;48.67;;;19.50;;
3563;SDS011;1796;52.388;13.096;2022-12-17T11:44:37;45.50;;;20.43;;
3563;SDS011;1796;52.388;13.096;2022-12-17T11:47:33;40.97;;;16.17;;
3563;SDS011;1796;52.388;13.096;2022-12-17T11:50:24;33.73;;;15.47;;
3563;SDS011;1796;52.388;13.096;2022-12-17T11:53:23;36.57;;;15.57;;
3563;SDS011;1796;52.388;13.096;2022-12-17T11:56:18;39.70;;;17.60;;
3563;SDS011;1796;52.388;13.096;2022-12-17T11:59:06;41.17;;;15.93;;
3563;SDS011;1796;52.388;13.096;2022-12-17T12:02:00;37.10;;;16.80;;
3563;SDS011;1796;52.388;13.096;2022-12-17T12:05:02;39.07;;;15.40;;
3563;SDS011;1796;52.388;13.096;2022-12-17T12:07:56;103.73;;;44.77;;
3563;SDS011;1796;52.388;13.096;2022-12-17T12:10:50;75.33;;;35.20;;
3563;SDS011;1796;52.388;13.096;2022-12-17T12:13:46;87.67;;;40.97;;
3563;SDS011;1796;52.388;13.096;2022-12-17T12:16:38;103.83;;;44.27;;
3563;SDS011;1796;52.388;13.096;2022-12-17T12:19:29;128.93;;;64.13;;
3563;SDS011;1796;52.388;13.096;2022-12-17T12:22:23;207.80;;;109.07;;
3563;SDS011;1796;52.388;13.096;2022-12-17T12:25:27;77.00;;;35.10;;
3563;SDS011;1796;52.388;13.096;2022-12-17T12:28:22;60.50;;;25.93;;
3563;SDS011;1796;52.388;13.096;2022-12-17T12:31:14;51.53;;;16.10;;
3563;SDS011;1796;52.388;13.096;2022-12-17T12:34:10;40.83;;;16.57;;
3563;SDS011;1796;52.388;13.096;2022-12-17T12:36:58;49.53;;;17.10;;
3563;SDS011;1796;52.388;13.096;2022-12-17T12:39:46;43.60;;;16.80;;
3563;SDS011;1796;52.388;13.096;2022-12-17T12:42:37;38.83;;;17.17;;
3563;SDS011;1796;52.388;13.096;2022-12-17T12:45:33;40.03;;;16.10;;
3563;SDS011;1796;52.388;13.096;2022-12-17T12:48:29;45.53;;;16.37;;
3563;SDS011;1796;52.388;13.096;2022-12-17T12:51:22;43.27;;;16.60;;
3563;SDS011;1796;52.388;13.096;2022-12-17T12:54:22;49.10;;;20.67;;
3563;SDS011;1796;52.388;13.096;2022-12-17T12:57:24;46.87;;;17.83;;
3563;SDS011;1796;52.388;13.096;2022-12-17T13:00:30;39.90;;;16.47;;
3563;SDS011;1796;52.388;13.096;2022-12-17T13:03:23;43.80;;;17.97;;
3563;SDS011;1796;52.388;13.096;2022-12-17T13:06:10;35.90;;;15.90;;
3563;SDS011;1796;52.388;13.096;2022-12-17T13:08:39;39.63;;;15.63;;
3563;SDS011;1796;52.388;13.096;2022-12-17T13:11:10;89.23;;;29.97;;
3563;SDS011;1796;52.388;13.096;2022-12-17T13:13:52;68.37;;;28.33;;
3563;SDS011;1796;52.388;13.096;2022-12-17T13:16:30;72.80;;;27.50;;
3563;SDS011;1796;52.388;13.096;2022-12-17T13:19:03;49.13;;;16.70;;
3563;SDS011;1796;52.388;13.096;2022-12-17T13:21:42;51.03;;;19.97;;
3563;SDS011;1796;52.388;13.096;2022-12-17T13:24:09;61.67;;;25.77;;
3563;SDS011;1796;52.388;13.096;2022-12-17T13:26:43;43.73;;;17.40;;
3563;SDS011;1796;52.388;13.096;2022-12-17T13:29:11;47.20;;;18.37;;
3563;SDS011;1796;52.388;13.096;2022-12-17T13:34:50;93.00;;;31.00;;
3563;SDS011;1796;52.388;13.096;2022-12-17T13:37:28;49.57;;;18.37;;
3563;SDS011;1796;52.388;13.096;2022-12-17T13:40:08;36.77;;;16.67;;
3563;SDS011;1796;52.388;13.096;2022-12-17T13:42:45;53.90;;;17.40;;
3563;SDS011;1796;52.388;13.096;2022-12-17T13:45:13;46.10;;;17.73;;
3563;SDS011;1796;52.388;13.096;2022-12-17T13:47:43;43.90;;;16.33;;
3563;SDS011;1796;52.388;13.096;2022-12-17T13:50:18;40.00;;;17.70;;
3563;SDS011;1796;52.388;13.096;2022-12-17T13:52:47;49.50;;;18.60;;
3563;SDS011;1796;52.388;13.096;2022-12-17T13:55:18;62.10;;;22.27;;
3563;SDS011;1796;52.388;13.096;2022-12-17T13:57:46;62.50;;;25.47;;
3563;SDS011;1796;52.388;13.096;2022-12-17T14:00:19;98.23;;;40.33;;
3563;SDS011;1796;52.388;13.096;2022-12-17T14:02:50;96.13;;;36.97;;
3563;SDS011;1796;52.388;13.096;2022-12-17T14:05:22;169.57;;;61.67;;
3563;SDS011;1796;52.388;13.096;2022-12-17T14:07:51;58.03;;;25.00;;
3563;SDS011;1796;52.388;13.096;2022-12-17T14:10:18;43.87;;;16.50;;
3563;SDS011;1796;52.388;13.096;2022-12-17T14:12:46;40.30;;;16.70;;
3563;SDS011;1796;52.388;13.096;2022-12-17T14:15:17;43.80;;;17.03;;
3563;SDS011;1796;52.388;13.096;2022-12-17T14:17:49;50.83;;;19.47;;
3563;SDS011;1796;52.388;13.096;2022-12-17T14:20:18;36.20;;;15.77;;
3563;SDS011;1796;52.388;13.096;2022-12-17T14:22:47;46.93;;;17.20;;
3563;SDS011;1796;52.388;13.096;2022-12-17T14:25:17;43.80;;;17.57;;
3563;SDS011;1796;52.388;13.096;2022-12-17T14:27:49;70.93;;;28.67;;
3563;SDS011;1796;52.388;13.096;2022-12-17T14:30:19;42.80;;;17.60;;
3563;SDS011;1796;52.388;13.096;2022-12-17T14:32:49;40.87;;;16.80;;
3563;SDS011;1796;52.388;13.096;2022-12-17T14:35:24;42.97;;;16.43;;
3563;SDS011;1796;52.388;13.096;2022-12-17T14:37:52;49.70;;;17.63;;
3563;SDS011;1796;52.388;13.096;2022-12-17T14:40:20;46.63;;;18.17;;
3563;SDS011;1796;52.388;13.096;2022-12-17T14:42:48;45.17;;;17.67;;
3563;SDS011;1796;52.388;13.096;2022-12-17T14:45:20;51.77;;;18.63;;
3563;SDS011;1796;52.388;13.096;2022-12-17T14:47:53;45.47;;;17.50;;
3563;SDS011;1796;52.388;13.096;2022-12-17T14:50:27;46.90;;;19.07;;
3563;SDS011;1796;52.388;13.096;2022-12-17T14:52:56;48.97;;;18.83;;
3563;SDS011;1796;52.388;13.096;2022-12-17T14:55:31;43.30;;;18.93;;
3563;SDS011;1796;52.388;13.096;2022-12-17T14:58:14;35.97;;;17.53;;
3563;SDS011;1796;52.388;13.096;2022-12-17T15:00:46;44.73;;;15.77;;
3563;SDS011;1796;52.388;13.096;2022-12-17T15:03:18;40.33;;;15.30;;
3563;SDS011;1796;52.388;13.096;2022-12-17T15:05:48;43.63;;;16.47;;
3563;SDS011;1796;52.388;13.096;2022-12-17T15:08:21;39.37;;;14.57;;
3563;SDS011;1796;52.388;13.096;2022-12-17T15:10:48;47.40;;;16.20;;
3563;SDS011;1796;52.388;13.096;2022-12-17T15:13:15;43.20;;;15.20;;
3563;SDS011;1796;52.388;13.096;2022-12-17T15:15:42;31.63;;;14.60;;
3563;SDS011;1796;52.388;13.096;2022-12-17T15:18:12;41.23;;;15.30;;
3563;SDS011;1796;52.388;13.096;2022-12-17T15:20:40;43.37;;;15.50;;
3563;SDS011;1796;52.388;13.096;2022-12-17T15:23:09;34.77;;;14.67;;
3563;SDS011;1796;52.388;13.096;2022-12-17T15:25:41;33.07;;;15.57;;
3563;SDS011;1796;52.388;13.096;2022-12-17T15:28:08;32.03;;;14.00;;
3563;SDS011;1796;52.388;13.096;2022-12-17T15:30:35;35.47;;;13.40;;
3563;SDS011;1796;52.388;13.096;2022-12-17T15:33:04;32.13;;;12.43;;
3563;SDS011;1796;52.388;13.096;2022-12-17T15:35:31;29.40;;;12.27;;
3563;SDS011;1796;52.388;13.096;2022-12-17T15:37:59;27.57;;;12.83;;
3563;SDS011;1796;52.388;13.096;2022-12-17T15:40:26;33.77;;;15.37;;
3563;SDS011;1796;52.388;13.096;2022-12-17T15:42:53;39.90;;;15.93;;
3563;SDS011;1796;52.388;13.096;2022-12-17T15:45:39;31.13;;;14.70;;
3563;SDS011;1796;52.388;13.096;2022-12-17T15:48:07;34.13;;;13.70;;
3563;SDS011;1796;52.388;13.096;2022-12-17T15:50:34;39.60;;;14.10;;
3563;SDS011;1796;52.388;13.096;2022-12-17T15:53:03;29.90;;;12.10;;
3563;SDS011;1796;52.388;13.096;2022-12-17T15:55:30;33.40;;;13.07;;
3563;SDS011;1796;52.388;13.096;2022-12-17T15:57:57;34.87;;;14.37;;
3563;SDS011;1796;52.388;13.096;2022-12-17T16:00:24;29.90;;;13.67;;
3563;SDS011;1796;52.388;13.096;2022-12-17T16:02:51;35.00;;;14.73;;
3563;SDS011;1796;52.388;13.096;2022-12-17T16:05:18;36.13;;;13.50;;
3563;SDS011;1796;52.388;13.096;2022-12-17T16:07:46;34.93;;;14.67;;
3563;SDS011;1796;52.388;13.096;2022-12-17T16:10:14;33.10;;;13.37;;
3563;SDS011;1796;52.388;13.096;2022-12-17T16:12:41;33.33;;;14.37;;
3563;SDS011;1796;52.388;13.096;2022-12-17T16:15:08;39.83;;;15.87;;
3563;SDS011;1796;52.388;13.096;2022-12-17T16:17:36;38.10;;;15.63;;
3563;SDS011;1796;52.388;13.096;2022-12-17T16:20:03;46.93;;;15.93;;